Terminal Aerodrome Forecast
Issued by NWS

Home | Current Version | Previous Version | Text Only | Print | Product List | Glossary On
Versions: 1 2 3 4 5 6 7 8 9 10 11 12 13 14 15 16 17
000
FTAK31 PAJN 181700
TAFAPG
TAF
PAPG 181725Z 1818/1918 10008KT P6SM -RA SCT025 OVC035
     FM182000 12010G18KT 5SM -RA BR SCT020 OVC030
     FM190300 14008KT 5SM -RA BR BKN020 OVC030
      AMD LTD TO CLD VIS AND WIND 1906/1915=

USA.gov is the U.S. government's official web portal to all federal, state and local government web resources and services.